Time;durP1;ratioP1;P1;durP2;ratioP2;P2;SDS_P1;SDS_P2;PMS_P1;PMS_P2;Temp;Humidity;BMP_temperature;BMP_pressure;BME280_temperature;BME280_humidity;BME280_pressure;Samples;Min_cycle;Max_cycle;Signal;HPM_P1;HPM_P2
2021/11/23 00:02:24;;;;;;;10.90;6.57;;;;;;;3.42;94.46;100133.72;4959760;28;20072;-62
2021/11/23 00:05:09;;;;;;;10.57;5.75;;;;;;;3.40;94.53;100125.28;4974580;28;20066;-63
2021/11/23 00:07:53;;;;;;;7.10;5.60;;;;;;;3.37;95.01;100120.31;4973614;28;20050;-63
2021/11/23 00:10:40;;;;;;;8.68;5.63;;;;;;;3.36;95.29;100122.00;4973539;28;20100;-63
2021/11/23 00:13:24;;;;;;;7.53;5.10;;;;;;;3.32;95.19;100114.53;4973168;28;20101;-63
2021/11/23 00:16:08;;;;;;;8.77;5.45;;;;;;;3.28;95.30;100115.56;4973492;28;20049;-63
2021/11/23 00:18:52;;;;;;;8.57;5.00;;;;;;;3.26;95.41;100123.28;4974467;28;20166;-63
2021/11/23 00:21:36;;;;;;;6.95;4.90;;;;;;;3.20;95.80;100117.59;4976787;28;20113;-63
2021/11/23 00:24:19;;;;;;;12.90;5.72;;;;;;;3.27;95.51;100122.44;4977338;28;20066;-63
2021/11/23 00:27:05;;;;;;;6.90;4.93;;;;;;;3.23;95.78;100122.63;4991077;28;20420;-62
2021/11/23 00:29:49;;;;;;;9.20;5.05;;;;;;;3.20;95.82;100122.72;4990831;28;20073;-63
2021/11/23 00:32:33;;;;;;;9.38;5.50;;;;;;;3.18;95.87;100119.41;4977073;28;20134;-63
2021/11/23 00:35:18;;;;;;;7.88;5.10;;;;;;;3.12;96.18;100125.59;4977162;28;20064;-62
2021/11/23 00:38:02;;;;;;;9.93;5.80;;;;;;;3.11;96.45;100123.94;4977985;28;20194;-63
2021/11/23 00:40:46;;;;;;;;;;;;;;;3.22;95.71;100131.16;4977251;28;20169;-63
2021/11/23 00:43:29;;;;;;;9.05;5.57;;;;;;;3.12;95.78;100130.72;4990499;28;19921;-63
2021/11/23 00:46:13;;;;;;;10.10;5.38;;;;;;;3.10;96.27;100136.78;4990796;28;20070;-63
2021/11/23 00:48:57;;;;;;;;;;;;;;;3.13;96.24;100140.06;4977117;28;20045;-63
2021/11/23 00:51:41;;;;;;;9.33;5.50;;;;;;;3.05;96.59;100133.59;4977614;28;20020;-63
2021/11/23 00:54:26;;;;;;;9.25;5.45;;;;;;;3.07;96.56;100142.88;4990801;28;20312;-63
2021/11/23 00:57:09;;;;;;;10.15;5.75;;;;;;;3.09;96.69;100145.34;4977522;28;20080;-63
2021/11/23 00:59:53;;;;;;;8.77;6.00;;;;;;;3.01;96.45;100143.09;4990227;28;20562;-63
2021/11/23 01:02:37;;;;;;;;;;;;;;;3.02;96.74;100144.78;4978013;28;20139;-63
2021/11/23 01:05:21;;;;;;;8.18;6.00;;;;;;;2.95;96.78;100151.00;4990288;28;19920;-63
2021/11/23 01:08:05;;;;;;;10.02;6.05;;;;;;;2.96;97.06;100151.84;4976300;28;20122;-63
2021/11/23 01:10:51;;;;;;;9.98;6.20;;;;;;;2.90;97.22;100145.25;4977492;28;20053;-63
2021/11/23 01:13:34;;;;;;;13.15;6.05;;;;;;;2.88;97.07;100141.94;4976158;28;20045;-62
2021/11/23 01:16:19;;;;;;;9.07;6.03;;;;;;;2.91;97.19;100146.09;4976365;28;20077;-63
2021/11/23 01:19:03;;;;;;;12.65;6.60;;;;;;;2.86;97.15;100150.56;4977359;28;20090;-63
2021/11/23 01:21:47;;;;;;;9.90;6.32;;;;;;;2.86;97.32;100142.88;4976346;28;20057;-63
2021/11/23 01:24:31;;;;;;;;;;;;;;;2.83;97.46;100141.28;4990244;28;20232;-63
2021/11/23 01:27:15;;;;;;;13.63;6.32;;;;;;;2.79;97.51;100146.56;4990017;28;19929;-63
2021/11/23 01:29:58;;;;;;;;;;;;;;;2.83;97.82;100148.13;4976617;28;20511;-63
2021/11/23 01:32:43;;;;;;;10.27;5.97;;;;;;;2.79;97.61;100141.47;4975405;28;19921;-63
2021/11/23 01:35:27;;;;;;;8.82;5.90;;;;;;;2.75;97.63;100150.97;4975823;28;20134;-62
2021/11/23 01:38:13;;;;;;;;;;;;;;;2.74;97.91;100151.88;4976550;28;20506;-63
2021/11/23 01:40:57;;;;;;;10.88;6.15;;;;;;;2.73;98.02;100146.84;4975707;28;19937;-63
2021/11/23 01:43:41;;;;;;;10.40;5.63;;;;;;;2.58;98.75;100148.25;4975585;28;20041;-63
2021/11/23 01:46:26;;;;;;;9.18;5.78;;;;;;;2.64;98.57;100152.28;4975864;28;20096;-63
2021/11/23 01:49:10;;;;;;;7.70;5.70;;;;;;;2.54;98.45;100150.97;4989260;28;20046;-63
2021/11/23 01:51:54;;;;;;;;;;;;;;;2.54;99.23;100153.53;4989732;28;20106;-63
2021/11/23 01:54:38;;;;;;;12.05;5.97;;;;;;;2.50;99.03;100154.53;4989512;28;20006;-63
2021/11/23 01:57:22;;;;;;;12.77;5.90;;;;;;;2.44;98.85;100154.78;4975597;28;20122;-63
2021/11/23 02:00:07;;;;;;;11.65;5.85;;;;;;;2.38;99.67;100155.00;4975626;28;20061;-63
2021/11/23 02:02:51;;;;;;;9.18;6.18;;;;;;;2.36;99.80;100161.88;4989231;28;20071;-63
2021/11/23 02:05:35;;;;;;;9.48;6.40;;;;;;;2.26;100.00;100165.69;4976536;28;20057;-63
2021/11/23 02:08:19;;;;;;;9.93;6.60;;;;;;;2.26;100.00;100160.56;4975475;28;20045;-63
2021/11/23 02:11:03;;;;;;;7.85;5.75;;;;;;;2.20;100.00;100155.72;4989009;28;20056;-63
2021/11/23 02:13:48;;;;;;;10.18;6.32;;;;;;;2.27;100.00;100154.56;4975091;28;20061;-63
2021/11/23 02:16:32;;;;;;;10.18;6.50;;;;;;;2.21;99.79;100147.16;4989086;28;20057;-63
2021/11/23 02:19:16;;;;;;;;;;;;;;;2.24;100.00;100157.25;4975364;28;20049;-62
2021/11/23 02:22:00;;;;;;;14.25;6.47;;;;;;;2.10;100.00;100144.16;4976144;28;19984;-63
2021/11/23 02:24:45;;;;;;;10.50;6.38;;;;;;;2.07;100.00;100143.44;4975882;28;20149;-63
2021/11/23 02:27:28;;;;;;;11.75;7.18;;;;;;;1.99;100.00;100142.88;4974813;28;20054;-63
2021/11/23 02:30:12;;;;;;;;;;;;;;;2.01;100.00;100149.59;4976205;28;20134;-63
2021/11/23 02:32:56;;;;;;;12.82;6.55;;;;;;;1.93;100.00;100146.50;4974657;28;19969;-62
2021/11/23 02:35:40;;;;;;;;;;;;;;;2.03;100.00;100158.03;4976412;28;20534;-63
2021/11/23 02:38:25;;;;;;;13.50;6.80;;;;;;;1.89;100.00;100154.31;4975870;28;20008;-63
2021/11/23 02:41:12;;;;;;;9.13;6.47;;;;;;;1.96;100.00;100159.13;4974593;28;20077;-63
2021/11/23 02:43:57;;;;;;;10.35;6.68;;;;;;;1.93;100.00;100158.41;4973538;28;20126;-63
2021/11/23 02:46:41;;;;;;;13.98;7.43;;;;;;;1.92;100.00;100155.03;4974738;28;20050;-63
2021/11/23 02:49:25;;;;;;;10.98;7.28;;;;;;;1.87;100.00;100154.34;4974435;28;20440;-62
2021/11/23 02:52:11;;;;;;;;;;;;;;;1.95;100.00;100154.91;4974935;28;20129;-63
2021/11/23 02:54:57;;;;;;;10.15;6.97;;;;;;;1.93;100.00;100164.34;4975858;28;19940;-63
2021/11/23 02:57:42;;;;;;;12.55;6.93;;;;;;;1.85;100.00;100162.97;4974462;28;20053;-63
2021/11/23 03:00:27;;;;;;;10.70;7.03;;;;;;;1.89;100.00;100165.38;4988098;28;20057;-63
2021/11/23 03:03:11;;;;;;;10.80;6.93;;;;;;;1.82;100.00;100165.59;4974089;28;20093;-63
2021/11/23 03:05:56;;;;;;;;;;;;;;;1.90;100.00;100161.91;4976078;28;20073;-63
2021/11/23 03:08:40;;;;;;;13.55;6.93;;;;;;;1.87;100.00;100164.56;4987997;28;19921;-63
2021/11/23 03:11:24;;;;;;;12.05;7.68;;;;;;;1.91;100.00;100163.59;4975063;28;20101;-63
2021/11/23 03:14:08;;;;;;;;;;;;;;;1.86;100.00;100164.63;4974382;28;20178;-62
2021/11/23 03:16:52;;;;;;;9.15;5.35;;;;;;;1.82;100.00;100156.25;4975253;28;19921;-63
2021/11/23 03:19:36;;;;;;;;;;;;;;;1.87;100.00;100156.91;4975311;28;20523;-63
2021/11/23 03:22:20;;;;;;;11.30;7.15;;;;;;;1.81;100.00;100151.19;4975083;28;20414;-63
2021/11/23 03:25:06;;;;;;;11.05;6.63;;;;;;;1.87;100.00;100151.78;4973853;28;20065;-63
2021/11/23 03:27:50;;;;;;;11.82;7.20;;;;;;;1.82;100.00;100138.38;4987863;28;20061;-63
2021/11/23 03:30:36;;;;;;;13.95;7.68;;;;;;;1.86;100.00;100144.22;4974993;28;20049;-63
2021/11/23 03:33:20;;;;;;;9.90;7.18;;;;;;;1.85;100.00;100148.47;4973481;28;20093;-63
2021/11/23 03:36:04;;;;;;;;;;;;;;;1.85;100.00;100143.38;4974081;28;20078;-63
2021/11/23 03:38:48;;;;;;;11.68;6.85;;;;;;;1.77;100.00;100147.91;4973576;28;19921;-63
2021/11/23 03:41:32;;;;;;;10.57;6.88;;;;;;;1.76;100.00;100143.69;4974593;28;20053;-63
2021/11/23 03:44:15;;;;;;;;;;;;;;;1.78;100.00;100151.31;4975797;28;20077;-63
2021/11/23 03:47:00;;;;;;;7.68;5.43;;;;;;;1.69;100.00;100142.25;4987256;28;20394;-63
2021/11/23 03:49:46;;;;;;;12.18;7.25;;;;;;;1.71;100.00;100148.13;4973745;28;20086;-63
2021/11/23 03:52:30;;;;;;;12.05;7.43;;;;;;;1.70;100.00;100143.09;4974618;28;20174;-63
2021/11/23 03:55:15;;;;;;;;;;;;;;;1.66;100.00;100142.34;4973607;28;20108;-63
2021/11/23 03:58:02;;;;;;;13.05;8.05;;;;;;;1.69;100.00;100142.25;4974280;28;20322;-63
2021/11/23 04:00:46;;;;;;;14.25;8.10;;;;;;;1.68;100.00;100145.69;4987344;28;20133;-63
2021/11/23 04:03:30;;;;;;;18.70;9.05;;;;;;;1.64;100.00;100141.56;4973655;28;20053;-63
2021/11/23 04:06:14;;;;;;;15.13;8.55;;;;;;;1.67;100.00;100151.66;4959654;28;20053;-63
2021/11/23 04:08:58;;;;;;;;;;;;;;;1.67;100.00;100149.13;4973990;28;20045;-63
2021/11/23 04:11:42;;;;;;;15.25;9.07;;;;;;;1.64;100.00;100151.78;4987026;28;19968;-63
2021/11/23 04:14:26;;;;;;;;;;;;;;;1.66;100.00;100142.34;4973694;28;20050;-63
2021/11/23 04:17:11;;;;;;;12.90;8.15;;;;;;;1.63;100.00;100141.63;4973266;28;19921;-63
2021/11/23 04:19:55;;;;;;;15.73;8.82;;;;;;;1.59;100.00;100146.03;4959595;28;20038;-62
2021/11/23 04:22:39;;;;;;;;;;;;;;;1.62;100.00;100147.63;4973756;28;20089;-63
2021/11/23 04:25:23;;;;;;;15.77;9.25;;;;;;;1.56;100.00;100146.09;4973479;28;19965;-63
2021/11/23 04:28:07;;;;;;;14.27;8.68;;;;;;;1.54;100.00;100152.16;4973437;28;20042;-63
2021/11/23 04:30:50;;;;;;;;;;;;;;;1.60;100.00;100157.88;4973713;28;20053;-63
2021/11/23 04:33:35;;;;;;;14.68;8.45;;;;;;;1.56;100.00;100158.03;4986896;28;19976;-63
2021/11/23 04:36:19;;;;;;;16.17;9.38;;;;;;;1.51;100.00;100150.56;4973784;28;20046;-63
2021/11/23 04:39:03;;;;;;;;;;;;;;;1.56;100.00;100153.75;4987634;28;20049;-63
2021/11/23 04:41:47;;;;;;;18.65;9.23;;;;;;;1.54;100.00;100158.09;4973529;28;20511;-63
2021/11/23 04:44:31;;;;;;;15.38;9.05;;;;;;;1.55;100.00;100159.75;4974521;28;20503;-63
2021/11/23 04:47:15;;;;;;;;;;;;;;;1.56;100.00;100161.41;4973869;28;20567;-63
2021/11/23 04:49:59;;;;;;;15.50;9.35;;;;;;;1.53;100.00;100156.44;4973214;28;20388;-63
2021/11/23 04:52:43;;;;;;;15.25;9.35;;;;;;;1.53;100.00;100158.97;4974038;28;20122;-63
2021/11/23 04:55:27;;;;;;;;;;;;;;;1.53;100.00;100156.44;4973778;28;20487;-63
2021/11/23 04:58:12;;;;;;;12.70;8.38;;;;;;;1.49;100.00;100162.53;4972840;28;19929;-63
2021/11/23 05:00:56;;;;;;;14.68;8.43;;;;;;;1.45;100.00;100166.06;4973126;28;20518;-63
2021/11/23 05:03:40;;;;;;;15.32;9.38;;;;;;;1.40;100.00;100165.38;4972729;28;20053;-62
2021/11/23 05:06:24;;;;;;;15.68;9.80;;;;;;;-139.48;100.00;61217.00;4986824;28;20090;-62
2021/11/23 05:09:08;;;;;;;;;;;;;;;-139.48;100.00;61217.00;4976714;28;20050;-63
2021/11/23 05:11:53;;;;;;;16.88;9.00;;;;;;;-139.48;100.00;61217.00;4976179;28;19922;-63
2021/11/23 05:14:36;;;;;;;;;;;;;;;-139.48;100.00;61217.00;4976792;28;20069;-63
2021/11/23 05:17:20;;;;;;;15.57;9.73;;;;;;;-139.48;100.00;61217.00;4990526;28;19941;-63
2021/11/23 05:20:05;;;;;;;;;;;;;;;-139.48;100.00;61217.00;4977776;28;20062;-63
2021/11/23 05:22:49;;;;;;;19.63;10.95;;;;;;;-139.48;100.00;61217.00;4976028;28;19945;-63
2021/11/23 05:25:33;;;;;;;;;;;;;;;-139.48;100.00;61217.00;4976752;28;20054;-63
2021/11/23 05:28:17;;;;;;;16.98;9.35;;;;;;;-139.48;100.00;61217.00;4990235;28;19924;-63
2021/11/23 05:31:01;;;;;;;19.75;11.38;;;;;;;-139.48;100.00;61217.00;4976097;28;20127;-63
2021/11/23 05:33:45;;;;;;;;;;;;;;;-139.48;100.00;61217.00;4976118;28;20166;-63
2021/11/23 05:36:29;;;;;;;14.90;9.95;;;;;;;-139.48;100.00;61217.00;4976118;28;20000;-63
2021/11/23 05:39:13;;;;;;;;;;;;;;;-139.48;100.00;61217.00;4976072;28;20097;-63
2021/11/23 05:41:57;;;;;;;16.63;9.48;;;;;;;-139.48;100.00;61217.00;4975888;28;19973;-63
2021/11/23 05:44:41;;;;;;;20.52;9.98;;;;;;;-139.48;100.00;61217.00;4975928;28;20097;-63
2021/11/23 05:47:25;;;;;;;20.08;11.48;;;;;;;-139.48;100.00;61217.00;4976774;28;20058;-63
2021/11/23 05:50:10;;;;;;;;;;;;;;;-139.48;100.00;61217.00;4976466;28;20128;-63
2021/11/23 05:52:53;;;;;;;16.35;10.35;;;;;;;-139.48;100.00;61217.00;4989513;28;20023;-63
2021/11/23 05:55:37;;;;;;;;;;;;;;;-139.48;100.00;61217.00;4976041;28;20065;-63
2021/11/23 05:58:21;;;;;;;16.17;9.80;;;;;;;-139.48;100.00;61217.00;4975600;28;19921;-63
2021/11/23 06:01:07;;;;;;;21.20;9.95;;;;;;;-139.48;100.00;61217.00;4975858;28;20085;-63
2021/11/23 06:03:50;;;;;;;15.70;9.93;;;;;;;-139.48;100.00;61217.00;4988966;28;20081;-63
2021/11/23 06:06:34;;;;;;;18.88;10.75;;;;;;;-139.48;100.00;61217.00;4975284;28;20447;-63
2021/11/23 06:09:18;;;;;;;;;;;;;;;-139.48;100.00;61217.00;4961950;28;20424;-62
2021/11/23 06:12:03;;;;;;;17.63;11.32;;;;;;;-139.48;100.00;61217.00;4976192;28;19921;-63
2021/11/23 06:14:47;;;;;;;22.00;12.02;;;;;;;-139.48;100.00;61217.00;4975084;28;20057;-63
2021/11/23 06:17:32;;;;;;;23.60;12.85;;;;;;;-139.48;100.00;61217.00;4988850;28;20101;-63
2021/11/23 06:20:15;;;;;;;;;;;;;;;-139.48;100.00;61217.00;4976997;28;20400;-63
2021/11/23 06:23:01;;;;;;;18.92;11.65;;;;;;;-139.48;100.00;61217.00;4988789;28;19924;-63
2021/11/23 06:25:48;;;;;;;21.55;11.93;;;;;;;-139.48;100.00;61217.00;4975163;28;20057;-63
2021/11/23 06:28:32;;;;;;;22.77;12.35;;;;;;;-139.48;100.00;61217.00;4975127;28;20041;-63
2021/11/23 06:31:15;;;;;;;;;;;;;;;-139.48;100.00;61217.00;4976255;28;20519;-63
2021/11/23 06:34:00;;;;;;;20.27;12.07;;;;;;;-139.48;100.00;61217.00;4974609;28;19976;-63
2021/11/23 06:36:45;;;;;;;21.02;11.65;;;;;;;-139.48;100.00;61217.00;4975704;28;20105;-63
2021/11/23 06:39:28;;;;;;;17.25;11.45;;;;;;;-139.48;100.00;61217.00;4974541;28;20049;-63
2021/11/23 06:42:12;;;;;;;;;;;;;;;-139.48;100.00;61217.00;4988687;28;20109;-63
2021/11/23 06:44:56;;;;;;;15.52;11.30;;;;;;;-139.48;100.00;61217.00;4975781;28;19929;-62
2021/11/23 06:47:40;;;;;;;;;;;;;;;-139.48;100.00;61217.00;4974946;28;20181;-63
2021/11/23 06:50:28;;;;;;;23.52;12.00;;;;;;;-139.48;100.00;61217.00;4974431;28;19965;-63
2021/11/23 06:53:13;;;;;;;24.15;12.52;;;;;;;-139.48;100.00;61217.00;4987821;28;20463;-63
2021/11/23 06:55:57;;;;;;;18.63;11.35;;;;;;;-139.48;100.00;61217.00;4974540;28;20049;-63
2021/11/23 06:58:41;;;;;;;;;;;;;;;-139.48;100.00;61217.00;4974574;28;20046;-63
2021/11/23 07:01:25;;;;;;;23.42;12.25;;;;;;;-139.48;100.00;61217.00;4988245;28;20290;-63
2021/11/23 07:04:09;;;;;;;;;;;;;;;-139.48;100.00;61217.00;4975486;28;20053;-63
2021/11/23 07:06:53;;;;;;;25.55;17.17;;;;;;;-139.48;100.00;61217.00;4987884;28;20390;-63
2021/11/23 07:09:37;;;;;;;;;;;;;;;-139.48;100.00;61217.00;4988525;28;20523;-63
2021/11/23 07:12:21;;;;;;;24.92;14.43;;;;;;;-139.48;100.00;61217.00;4975090;28;19920;-63
2021/11/23 07:15:06;;;;;;;23.70;12.95;;;;;;;-139.48;100.00;61217.00;4973973;28;20097;-63
2021/11/23 07:17:50;;;;;;;24.42;15.23;;;;;;;-139.48;100.00;61217.00;4974334;28;20105;-63
2021/11/23 07:20:34;;;;;;;25.58;14.10;;;;;;;-139.48;100.00;61217.00;4973973;28;20530;-63
2021/11/23 07:23:18;;;;;;;;;;;;;;;-139.48;100.00;61217.00;4987941;28;20539;-63
2021/11/23 07:26:02;;;;;;;25.77;13.52;;;;;;;-139.48;100.00;61217.00;4987857;28;20389;-62
2021/11/23 07:28:46;;;;;;;28.17;14.85;;;;;;;-139.48;100.00;61217.00;4973951;28;20166;-62
2021/11/23 07:31:30;;;;;;;;;;;;;;;-139.48;100.00;61217.00;4973898;28;20061;-63
2021/11/23 07:34:14;;;;;;;25.27;13.90;;;;;;;-139.48;100.00;61217.00;4987454;28;19920;-63
2021/11/23 07:36:57;;;;;;;;;;;;;;;-139.48;100.00;61217.00;4974170;28;20132;-62
2021/11/23 07:39:43;;;;;;;18.35;10.93;;;;;;;-139.48;100.00;61217.00;4987602;28;19960;-63
2021/11/23 07:42:27;;;;;;;21.98;13.75;;;;;;;-139.48;100.00;61217.00;4987474;28;20562;-63
2021/11/23 07:45:11;;;;;;;22.20;12.45;;;;;;;-139.48;100.00;61217.00;4973842;28;20101;-63
2021/11/23 07:47:55;;;;;;;22.17;12.07;;;;;;;-139.48;100.00;61217.00;4974050;28;20054;-62
2021/11/23 07:50:39;;;;;;;;;;;;;;;-139.48;100.00;61217.00;4973880;28;20058;-63
2021/11/23 07:53:23;;;;;;;20.73;11.02;;;;;;;-139.48;100.00;61217.00;4973685;28;19964;-63
2021/11/23 07:56:07;;;;;;;;;;;;;;;-139.48;100.00;61217.00;4987539;28;20127;-63
2021/11/23 07:58:52;;;;;;;17.80;11.98;;;;;;;-139.48;100.00;61217.00;4987352;28;19921;-63
2021/11/23 08:01:36;;;;;;;19.33;11.27;;;;;;;-139.48;100.00;61217.00;4973635;28;20057;-62
2021/11/23 08:04:19;;;;;;;;;;;;;;;-139.48;100.00;61217.00;4987479;28;20053;-63
2021/11/23 08:07:03;;;;;;;25.92;12.95;;;;;;;-139.48;100.00;61217.00;4987281;28;19930;-63
2021/11/23 08:09:47;;;;;;;;;;;;;;;-139.48;100.00;61217.00;4973937;28;20515;-63
2021/11/23 08:12:32;;;;;;;22.17;15.07;;;;;;;-139.48;100.00;61217.00;4973700;28;20378;-63
2021/11/23 08:15:16;;;;;;;22.13;13.05;;;;;;;-139.48;100.00;61217.00;4973279;28;20073;-63
2021/11/23 08:17:59;;;;;;;28.33;17.38;;;;;;;-139.48;100.00;61217.00;4973460;28;20045;-63
2021/11/23 08:20:44;;;;;;;25.10;14.88;;;;;;;-139.48;100.00;61217.00;4973528;28;20101;-63
2021/11/23 08:23:28;;;;;;;24.27;14.95;;;;;;;-139.48;100.00;61217.00;4973597;28;20058;-63
2021/11/23 08:26:13;;;;;;;18.77;11.30;;;;;;;-139.48;100.00;61217.00;4974413;28;20061;-63
2021/11/23 08:28:57;;;;;;;15.15;9.65;;;;;;;-139.48;100.00;61217.00;4987156;28;20190;-64
2021/11/23 08:31:41;;;;;;;17.88;10.52;;;;;;;-139.48;100.00;61217.00;4974261;28;20058;-63
2021/11/23 08:34:27;;;;;;;13.20;8.57;;;;;;;-139.48;100.00;61217.00;4973273;28;20057;-63
2021/11/23 08:37:11;;;;;;;13.63;7.90;;;;;;;-139.48;100.00;61217.00;4974307;28;20050;-64
2021/11/23 08:39:55;;;;;;;;;;;;;;;-139.48;100.00;61217.00;4973331;28;20539;-64
2021/11/23 08:42:40;;;;;;;294.60;122.40;;;;;;;-139.48;100.00;61217.00;4974855;28;19960;-62
2021/11/23 08:45:24;;;;;;;43.55;34.58;;;;;;;-139.48;100.00;61217.00;4977364;28;20081;-62
2021/11/23 08:48:08;;;;;;;20.23;17.10;;;;;;;-139.48;100.00;61217.00;4976881;28;20046;-62
2021/11/23 08:50:52;;;;;;;16.65;15.00;;;;;;;-139.48;100.00;61217.00;4976926;28;20053;-62
2021/11/23 08:53:36;;;;;;;20.10;18.15;;;;;;;-139.48;100.00;61217.00;4976804;28;20050;-62
2021/11/23 08:56:20;;;;;;;;;;;;;;;-139.48;100.00;61217.00;4977495;28;20049;-62
2021/11/23 08:59:11;;;;;;;19.20;17.33;;;;;;;-139.48;100.00;61217.00;4990518;28;19921;-62
2021/11/23 09:01:55;;;;;;;30.88;28.02;;;;;;;-139.48;100.00;61217.00;4990038;28;20280;-63
2021/11/23 09:04:40;;;;;;;60.10;53.92;;;;;;;-139.48;100.00;61217.00;4975462;28;20093;-63
2021/11/23 09:07:24;;;;;;;56.88;50.88;;;;;;;-139.48;100.00;61217.00;4989250;28;20054;-63
2021/11/23 09:10:16;;;;;;;57.35;51.17;;;;;;;-139.48;100.00;61217.00;4975857;28;20049;-63
2021/11/23 09:13:01;;;;;;;47.55;42.53;;;;;;;-139.48;100.00;61217.00;4976305;28;20054;-63
2021/11/23 09:15:46;;;;;;;45.47;40.75;;;;;;;-139.48;100.00;61217.00;4975653;28;20053;-63
2021/11/23 09:18:30;;;;;;;27.88;25.05;;;;;;;-139.48;100.00;61217.00;4975558;28;20050;-63
2021/11/23 09:21:14;;;;;;;86.05;77.03;;;;;;;-139.48;100.00;61217.00;4975864;28;20101;-63
2021/11/23 09:23:59;;;;;;;45.63;41.00;;;;;;;-139.48;100.00;61217.00;4961702;28;20155;-64
2021/11/23 09:26:46;;;;;;;39.25;35.30;;;;;;;-139.48;100.00;61217.00;4975269;28;20137;-64
2021/11/23 09:29:30;;;;;;;54.10;48.63;;;;;;;-139.48;100.00;61217.00;4976771;28;20128;-64
2021/11/23 09:32:15;;;;;;;29.75;26.73;;;;;;;-139.48;100.00;61217.00;4975029;28;20075;-64
2021/11/23 09:34:59;;;;;;;74.10;66.43;;;;;;;-139.48;100.00;61217.00;4988921;28;20166;-64
2021/11/23 09:37:43;;;;;;;17.90;15.25;;;;;;;-139.48;100.00;61217.00;4975340;28;20069;-64
2021/11/23 09:40:29;;;;;;;;;;;;;;;-139.48;100.00;61217.00;4975767;28;20121;-65
2021/11/23 09:43:13;;;;;;;14.48;12.88;;;;;;;-139.48;100.00;61217.00;4975201;28;20032;-64
2021/11/23 09:45:57;;;;;;;;;;;;;;;-139.48;100.00;61217.00;4975433;28;20120;-64
2021/11/23 09:48:43;;;;;;;16.90;13.82;;;;;;;-139.48;100.00;61217.00;4976836;28;20013;-61
2021/11/23 09:51:32;;;;;;;5.90;5.30;;;;;;;-139.48;100.00;61217.00;4975411;28;20084;-62
2021/11/23 09:54:16;;;;;;;7.07;5.45;;;;;;;-139.48;100.00;61217.00;4975088;28;20145;-62
2021/11/23 09:57:00;;;;;;;;;;;;;;;-139.48;100.00;61217.00;4975484;28;20104;-63
2021/11/23 09:59:44;;;;;;;9.63;8.30;;;;;;;-139.48;100.00;61217.00;4974918;28;19964;-63
2021/11/23 10:02:30;;;;;;;17.10;12.05;;;;;;;-139.48;100.00;61217.00;4975046;28;20092;-63
2021/11/23 10:05:15;;;;;;;13.25;11.82;;;;;;;-139.48;100.00;61217.00;4975902;28;20065;-63
2021/11/23 10:08:15;;;;;;;74.07;66.10;;;;;;;-139.48;100.00;61217.00;4974955;28;20467;-63
2021/11/23 10:10:59;;;;;;;14.77;12.45;;;;;;;-139.48;100.00;61217.00;4974877;28;20097;-63
2021/11/23 10:13:46;;;;;;;12.30;10.25;;;;;;;-139.48;100.00;61217.00;4974803;28;20068;-63
2021/11/23 10:16:42;;;;;;;36.45;32.65;;;;;;;-139.48;100.00;61217.00;4974547;28;20526;-63
2021/11/23 10:19:36;;;;;;;8.60;5.80;;;;;;;-139.48;100.00;61217.00;4974673;28;20133;-63
2021/11/23 10:22:35;;;;;;;31.80;28.52;;;;;;;-139.48;100.00;61217.00;4974606;28;20053;-63
2021/11/23 10:25:19;;;;;;;6.45;5.50;;;;;;;-139.48;100.00;61217.00;4974621;28;20053;-63
2021/11/23 10:28:05;;;;;;;7.68;6.95;;;;;;;-139.48;100.00;61217.00;4975344;28;20081;-63
2021/11/23 10:30:49;;;;;;;5.97;5.05;;;;;;;-139.48;100.00;61217.00;4975432;28;20077;-63
2021/11/23 10:33:34;;;;;;;12.23;10.75;;;;;;;-139.48;100.00;61217.00;4987966;28;20180;-64
2021/11/23 10:36:19;;;;;;;11.85;10.65;;;;;;;-139.48;100.00;61217.00;4975731;28;20057;-64
2021/11/23 10:39:12;;;;;;;15.10;13.68;;;;;;;-139.48;100.00;61217.00;4987906;28;20436;-64
2021/11/23 10:41:59;;;;;;;13.73;12.20;;;;;;;-139.48;100.00;61217.00;4975106;28;20197;-64
2021/11/23 10:44:52;;;;;;;14.18;12.35;;;;;;;-139.48;100.00;61217.00;4974095;28;20649;-63
2021/11/23 10:47:38;;;;;;;19.33;17.33;;;;;;;-139.48;100.00;61217.00;4974348;28;20078;-64
2021/11/23 10:50:24;;;;;;;7.95;6.97;;;;;;;-139.48;100.00;61217.00;4975146;28;20082;-65
2021/11/23 10:53:12;;;;;;;11.52;10.35;;;;;;;-139.48;100.00;61217.00;4974963;28;20415;-64
2021/11/23 10:56:04;;;;;;;22.90;20.75;;;;;;;-139.48;100.00;61217.00;4974046;28;20097;-64
2021/11/23 10:58:50;;;;;;;10.68;9.68;;;;;;;-139.48;100.00;61217.00;4975121;28;20420;-64
2021/11/23 11:01:36;;;;;;;13.85;11.43;;;;;;;-139.48;100.00;61217.00;4974267;28;20468;-67
2021/11/23 11:04:20;;;;;;;10.90;9.65;;;;;;;-139.48;100.00;61217.00;4974167;28;20053;-65
2021/11/23 11:07:04;;;;;;;38.90;34.83;;;;;;;-139.48;100.00;61217.00;4974160;28;20514;-63
2021/11/23 11:09:48;;;;;;;24.42;21.77;;;;;;;-139.48;100.00;61217.00;4974890;28;20142;-63
2021/11/23 11:12:33;;;;;;;11.45;9.60;;;;;;;-139.48;100.00;61217.00;4974210;28;20112;-63
2021/11/23 11:15:20;;;;;;;60.35;47.28;;;;;;;-139.48;100.00;61217.00;4974232;28;20053;-63
2021/11/23 11:18:10;;;;;;;60.45;37.05;;;;;;;-139.48;100.00;61217.00;4987921;28;20170;-64
2021/11/23 11:21:03;;;;;;;21.83;17.15;;;;;;;-139.48;100.00;61217.00;4974094;28;20053;-63
2021/11/23 11:23:47;;;;;;;19.77;16.90;;;;;;;-139.48;100.00;61217.00;4974892;28;20109;-64
2021/11/23 11:26:39;;;;;;;10.00;8.40;;;;;;;-139.48;100.00;61217.00;4987768;28;20108;-63
2021/11/23 11:29:28;;;;;;;4.50;4.10;;;;;;;-139.48;100.00;61217.00;4974763;28;20066;-63
2021/11/23 11:32:33;;;;;;;23.38;16.85;;;;;;;-139.48;100.00;61217.00;4973876;28;20411;-63
2021/11/23 11:35:29;;;;;;;9.07;7.35;;;;;;;-139.48;100.00;61217.00;4975064;28;20046;-63
2021/11/23 11:38:25;;;;;;;11.13;8.50;;;;;;;-139.48;100.00;61217.00;4987489;28;20058;-63
2021/11/23 11:41:41;;;;;;;36.75;23.25;;;;;;;-139.48;100.00;61217.00;4975175;28;20053;-63
2021/11/23 11:44:48;;;;;;;6.80;5.32;;;;;;;-139.48;100.00;61217.00;4975011;28;20471;-63
2021/11/23 11:47:34;;;;;;;36.03;26.42;;;;;;;-139.48;100.00;61217.00;4974668;28;20416;-63
2021/11/23 11:50:21;;;;;;;16.73;12.25;;;;;;;-139.48;100.00;61217.00;4974973;28;20112;-63
2021/11/23 11:53:07;;;;;;;9.88;9.00;;;;;;;-139.48;100.00;61217.00;4987512;28;20515;-63
2021/11/23 11:55:52;;;;;;;6.65;5.35;;;;;;;-139.48;100.00;61217.00;4973841;28;20534;-63
2021/11/23 11:58:53;;;;;;;10.75;9.70;;;;;;;-139.48;100.00;61217.00;4973147;28;20110;-63
2021/11/23 12:01:37;;;;;;;7.25;6.55;;;;;;;-139.48;100.00;61217.00;4972914;28;20089;-63
2021/11/23 12:04:26;;;;;;;15.93;12.32;;;;;;;-139.48;100.00;61217.00;4972872;28;20480;-64
2021/11/23 12:07:14;;;;;;;15.75;14.05;;;;;;;-139.48;100.00;61217.00;4973272;28;20117;-64
2021/11/23 12:10:15;;;;;;;14.90;13.30;;;;;;;-139.48;100.00;61217.00;4986772;28;20045;-64
2021/11/23 12:13:10;;;;;;;12.98;9.38;;;;;;;-139.48;100.00;61217.00;4973719;28;20523;-64
2021/11/23 12:16:11;;;;;;;24.10;21.42;;;;;;;-139.48;100.00;61217.00;4974127;28;20077;-64
2021/11/23 12:19:04;;;;;;;14.57;13.02;;;;;;;-139.48;100.00;61217.00;4977968;28;20046;-64
2021/11/23 12:21:54;;;;;;;11.68;9.73;;;;;;;-139.48;100.00;61217.00;4991735;28;20104;-64
2021/11/23 12:24:41;;;;;;;18.60;16.77;;;;;;;-139.48;100.00;61217.00;4977871;28;20080;-64
2021/11/23 12:27:25;;;;;;;17.98;14.80;;;;;;;-139.48;100.00;61217.00;4977117;28;20049;-64
2021/11/23 12:30:09;;;;;;;6.13;5.35;;;;;;;-139.48;100.00;61217.00;4976678;28;20104;-64
2021/11/23 12:32:57;;;;;;;15.02;10.55;;;;;;;-139.48;100.00;61217.00;4976660;28;20106;-64
2021/11/23 12:35:42;;;;;;;10.57;8.40;;;;;;;-139.48;100.00;61217.00;4976964;28;20054;-64
2021/11/23 12:38:31;;;;;;;5.72;4.55;;;;;;;-139.48;100.00;61217.00;4976481;28;20053;-64
2021/11/23 12:41:24;;;;;;;35.88;25.55;;;;;;;-139.48;100.00;61217.00;4990430;28;20057;-64
2021/11/23 12:44:25;;;;;;;28.90;19.30;;;;;;;-139.48;100.00;61217.00;4990262;28;20049;-63
2021/11/23 12:47:13;;;;;;;37.17;24.70;;;;;;;-139.48;100.00;61217.00;4976407;28;20053;-64